Time;durP1;ratioP1;P1;durP2;ratioP2;P2;SDS_P1;SDS_P2;PMS_P1;PMS_P2;Temp;Humidity;BMP_temperature;BMP_pressure;BME280_temperature;BME280_humidity;BME280_pressure;Samples;Min_cycle;Max_cycle;Signal;HPM_P1;HPM_P2
2024/03/11 00:00:17;;;;;;;;;;;;;;;9.77;66.94;96301.81;5094233;28;20024;-82
2024/03/11 00:02:45;;;;;;;;;;;;;;;9.74;66.97;96304.44;5070412;28;19932;-83
2024/03/11 00:05:13;;;;;;;;;;;;;;;9.74;67.17;96299.00;5077419;28;19951;-82
2024/03/11 00:07:43;;;;;;;;;;;;;;;9.65;67.23;96318.94;5077713;28;19924;-81
2024/03/11 00:10:14;;;;;;;;;;;;;;;9.71;67.37;96316.75;5077177;28;19924;-82
2024/03/11 00:12:49;;;;;;;;;;;;;;;9.76;67.39;96315.75;5070834;28;19929;-83
2024/03/11 00:15:20;;;;;;;;;;;;;;;9.79;67.20;96321.25;5080560;28;19924;-82
2024/03/11 00:17:48;;;;;;;;;;;;;;;9.80;67.35;96324.75;5080286;28;19956;-82
2024/03/11 00:20:16;;;;;;;;;;;;;;;9.80;67.25;96330.97;5072824;28;20326;-82
2024/03/11 00:22:45;;;;;;;;;;;;;;;9.73;67.10;96330.75;5073687;28;19924;-82
2024/03/11 00:25:13;;;;;;;;;;;;;;;9.74;66.55;96334.25;5069578;28;20045;-82
2024/03/11 00:27:41;;;;;;;;;;;;;;;9.76;66.31;96340.94;5098709;28;19924;-82
2024/03/11 00:30:12;;;;;;;;;;;;;;;9.71;66.42;96343.88;5084303;28;20014;-82
2024/03/11 00:32:44;;;;;;;;;;;;;;;9.70;66.19;96340.38;5073837;28;19929;-82
2024/03/11 00:35:14;;;;;;;;;;;;;;;9.66;66.39;96342.19;5094212;28;19931;-82
2024/03/11 00:37:45;;;;;;;;;;;;;;;9.67;66.20;96351.13;5057697;28;19925;-82
2024/03/11 00:40:13;;;;;;;;;;;;;;;9.59;66.22;96346.63;5084635;28;19948;-82
2024/03/11 00:42:41;;;;;;;;;;;;;;;9.65;66.52;96345.25;5067823;28;20001;-82
2024/03/11 00:45:11;;;;;;;;;;;;;;;9.65;66.24;96345.25;5082686;28;19925;-82
2024/03/11 00:47:40;;;;;;;;;;;;;;;9.58;66.31;96350.47;5087277;28;19924;-81
2024/03/11 00:50:10;;;;;;;;;;;;;;;9.50;66.87;96354.88;5070182;28;19924;-82
2024/03/11 00:52:41;;;;;;;;;;;;;;;9.50;66.42;96356.81;5075610;28;19928;-81
2024/03/11 00:55:10;;;;;;;;;;;;;;;9.47;66.22;96358.28;5078971;28;19924;-84
2024/03/11 00:57:38;;;;;;;;;;;;;;;9.48;66.38;96367.19;5081339;28;20337;-83
2024/03/11 01:00:08;;;;;;;;;;;;;;;9.40;66.12;96366.97;5091890;28;19935;-84
2024/03/11 01:02:39;;;;;;;;;;;;;;;9.53;66.24;96364.25;5089494;28;19978;-84
2024/03/11 01:05:08;;;;;;;;;;;;;;;9.45;66.14;96369.47;5065616;28;19928;-83
2024/03/11 01:07:36;;;;;;;;;;;;;;;9.43;66.17;96371.75;5094814;28;20479;-84
2024/03/11 01:10:11;;;;;;;;;;;;;;;9.40;66.41;96375.13;5078538;28;19938;-84
2024/03/11 01:12:41;;;;;;;;;;;;;;;9.43;66.29;96374.44;5068013;28;19924;-83
2024/03/11 01:15:10;;;;;;;;;;;;;;;9.49;66.07;96379.63;5074965;28;19967;-84
2024/03/11 01:17:39;;;;;;;;;;;;;;;9.32;66.16;96388.78;5070225;28;20280;-83
2024/03/11 01:20:09;;;;;;;;;;;;;;;9.30;66.22;96389.13;5082718;28;19959;-84
2024/03/11 01:22:39;;;;;;;;;;;;;;;9.27;66.34;96400.66;5101681;28;19932;-84
2024/03/11 01:25:09;;;;;;;;;;;;;;;9.38;66.27;96396.38;5102753;28;19927;-84
2024/03/11 01:27:37;;;;;;;;;;;;;;;9.41;65.65;96395.66;5076217;28;19932;-84
2024/03/11 01:30:07;;;;;;;;;;;;;;;9.44;66.18;96399.63;5072523;28;19947;-83
2024/03/11 01:32:37;;;;;;;;;;;;;;;9.48;65.51;96400.53;5072452;28;19963;-85
2024/03/11 01:35:06;;;;;;;;;;;;;;;9.54;65.51;96404.59;5082662;28;19970;-79
2024/03/11 01:37:36;;;;;;;;;;;;;;;9.45;65.63;96404.72;5094592;28;19950;-79
2024/03/11 01:40:04;;;;;;;;;;;;;;;9.50;65.64;96402.91;5071786;28;19924;-78
2024/03/11 01:42:32;;;;;;;;;;;;;;;9.49;65.65;96404.03;5069287;28;19943;-79
2024/03/11 01:44:59;;;;;;;;;;;;;;;9.44;65.74;96410.47;5088079;28;19924;-79
2024/03/11 01:47:27;;;;;;;;;;;;;;;9.47;65.31;96419.84;5069389;28;19950;-79
2024/03/11 01:49:59;;;;;;;;;;;;;;;9.44;65.34;96407.75;5079297;28;19932;-78
2024/03/11 01:52:30;;;;;;;;;;;;;;;9.47;65.10;96420.63;5064194;28;19928;-79
2024/03/11 01:55:01;;;;;;;;;;;;;;;9.44;65.08;96407.75;5100411;28;19931;-79
2024/03/11 01:57:29;;;;;;;;;;;;;;;9.23;65.09;96413.31;5074854;28;19985;-79
2024/03/11 01:59:56;;;;;;;;;;;;;;;9.22;65.30;96408.22;5069614;28;20551;-79
2024/03/11 02:02:24;;;;;;;;;;;;;;;9.25;65.56;96404.81;5079532;28;19969;-79
2024/03/11 02:04:53;;;;;;;;;;;;;;;9.18;64.91;96419.72;5104823;28;19924;-83
2024/03/11 02:07:21;;;;;;;;;;;;;;;9.26;65.25;96411.81;5072718;28;19959;-83
2024/03/11 02:09:51;;;;;;;;;;;;;;;9.26;65.04;96411.81;5093379;28;19924;-83
2024/03/11 02:12:19;;;;;;;;;;;;;;;9.19;65.39;96421.31;5085238;28;19927;-83
2024/03/11 02:14:47;;;;;;;;;;;;;;;9.17;65.24;96418.16;5074004;28;19959;-82
2024/03/11 02:17:16;;;;;;;;;;;;;;;9.17;65.29;96418.16;5067373;28;19931;-82
2024/03/11 02:19:47;;;;;;;;;;;;;;;9.11;65.38;96414.09;5068783;28;20279;-83
2024/03/11 02:22:16;;;;;;;;;;;;;;;9.14;65.36;96421.53;5076661;28;19924;-83
2024/03/11 02:24:47;;;;;;;;;;;;;;;9.10;65.65;96433.38;5078660;28;19979;-83
2024/03/11 02:27:14;;;;;;;;;;;;;;;9.13;65.62;96421.88;5094625;28;19924;-82
2024/03/11 02:29:42;;;;;;;;;;;;;;;9.18;65.48;96424.38;5085688;28;20024;-83
2024/03/11 02:32:10;;;;;;;;;;;;;;;9.19;65.77;96431.34;5101196;28;19924;-82
2024/03/11 02:34:38;;;;;;;;;;;;;;;9.09;65.70;96432.59;5073860;28;19974;-82
2024/03/11 02:37:07;;;;;;;;;;;;;;;9.11;65.98;96434.97;5068589;28;19936;-83
2024/03/11 02:39:34;;;;;;;;;;;;;;;9.06;65.87;96432.50;5084952;28;19924;-81
2024/03/11 02:42:04;;;;;;;;;;;;;;;8.92;66.12;96430.88;5074332;28;20375;-82
2024/03/11 02:44:33;;;;;;;;;;;;;;;8.96;66.13;96438.34;5089577;28;19924;-83
2024/03/11 02:47:01;;;;;;;;;;;;;;;8.99;66.08;96434.94;5073122;28;19928;-83
2024/03/11 02:49:28;;;;;;;;;;;;;;;9.07;65.63;96434.06;5071464;28;19971;-83
2024/03/11 02:51:56;;;;;;;;;;;;;;;9.07;65.63;96436.78;5079458;28;20399;-83
2024/03/11 02:54:26;;;;;;;;;;;;;;;9.00;65.60;96442.75;5081272;28;19971;-82
2024/03/11 02:56:54;;;;;;;;;;;;;;;8.91;65.79;96436.63;5079800;28;19959;-83
2024/03/11 02:59:24;;;;;;;;;;;;;;;8.95;65.47;96442.16;5101786;28;19947;-83
2024/03/11 03:04:47;;;;;;;;;;;;;;;8.95;65.50;96455.69;5103947;28;19924;-82
2024/03/11 03:07:19;;;;;;;;;;;;;;;8.90;65.58;96459.44;5059812;28;20019;-83
2024/03/11 03:09:46;;;;;;;;;;;;;;;8.88;65.99;96453.56;5073000;28;19931;-83
2024/03/11 03:12:14;;;;;;;;;;;;;;;8.95;65.68;96453.81;5087177;28;19924;-83
2024/03/11 03:14:44;;;;;;;;;;;;;;;8.93;65.96;96464.16;5080291;28;19931;-83
2024/03/11 03:17:12;;;;;;;;;;;;;;;8.99;65.51;96470.16;5077636;28;19925;-83
2024/03/11 03:19:40;;;;;;;;;;;;;;;8.86;66.00;96475.56;5076138;28;19931;-83
2024/03/11 03:22:08;;;;;;;;;;;;;;;8.77;66.22;96477.56;5073148;28;19982;-83
2024/03/11 03:24:36;;;;;;;;;;;;;;;8.91;65.79;96479.97;5107424;28;19938;-83
2024/03/11 03:27:09;;;;;;;;;;;;;;;8.93;66.06;96481.22;5085607;28;19931;-83
2024/03/11 03:29:39;;;;;;;;;;;;;;;8.87;66.07;96485.25;5095875;28;20019;-84
2024/03/11 03:32:09;;;;;;;;;;;;;;;8.92;65.99;96486.97;5072999;28;19931;-83
2024/03/11 03:34:37;;;;;;;;;;;;;;;8.98;65.78;96490.25;5070387;28;19960;-84
2024/03/11 03:37:05;;;;;;;;;;;;;;;8.93;66.12;96488.53;5066367;28;19930;-84
2024/03/11 03:39:33;;;;;;;;;;;;;;;8.98;65.64;96495.66;5078821;28;20383;-84
2024/03/11 03:42:01;;;;;;;;;;;;;;;8.94;65.78;96487.41;5082967;28;19924;-84
2024/03/11 03:44:29;;;;;;;;;;;;;;;9.00;65.63;96482.56;5069491;28;20369;-82
2024/03/11 03:46:57;;;;;;;;;;;;;;;8.92;65.87;96487.75;5076418;28;19964;-84
2024/03/11 03:49:27;;;;;;;;;;;;;;;8.95;65.50;96496.31;5068138;28;20023;-83
2024/03/11 03:51:55;;;;;;;;;;;;;;;8.94;65.74;96495.53;5073781;28;19963;-83
2024/03/11 03:54:23;;;;;;;;;;;;;;;8.96;65.77;96501.44;5064652;28;19974;-84
2024/03/11 03:56:52;;;;;;;;;;;;;;;8.92;65.92;96503.22;5097572;28;20037;-82
2024/03/11 03:59:21;;;;;;;;;;;;;;;8.88;66.00;96503.09;5080490;28;19927;-84
2024/03/11 04:01:50;;;;;;;;;;;;;;;8.87;65.78;96501.50;5068681;28;19932;-83
2024/03/11 04:04:17;;;;;;;;;;;;;;;8.85;65.81;96503.78;5097966;28;20329;-84
2024/03/11 04:06:47;;;;;;;;;;;;;;;8.91;65.45;96507.84;5091639;28;19932;-83
2024/03/11 04:09:15;;;;;;;;;;;;;;;8.92;65.38;96506.72;5080407;28;20359;-84
2024/03/11 04:11:46;;;;;;;;;;;;;;;8.86;65.63;96513.47;5082560;28;20387;-84
2024/03/11 04:14:14;;;;;;;;;;;;;;;8.85;65.64;96514.59;5090409;28;19924;-83
2024/03/11 04:16:42;;;;;;;;;;;;;;;8.81;65.81;96512.91;5074358;28;19932;-84
2024/03/11 04:19:10;;;;;;;;;;;;;;;8.73;65.83;96508.34;5073290;28;19924;-84
2024/03/11 04:21:39;;;;;;;;;;;;;;;8.78;65.74;96517.03;5097060;28;20278;-84
2024/03/11 04:24:11;;;;;;;;;;;;;;;8.76;65.42;96526.63;5089669;28;19924;-78
2024/03/11 04:26:39;;;;;;;;;;;;;;;8.67;65.75;96524.00;5088841;28;19981;-77
2024/03/11 04:29:07;;;;;;;;;;;;;;;8.59;65.63;96525.69;5075156;28;19924;-78
2024/03/11 04:31:36;;;;;;;;;;;;;;;8.57;65.82;96525.19;5098112;28;19931;-77
2024/03/11 04:34:04;;;;;;;;;;;;;;;8.61;65.42;96528.81;5069479;28;19928;-77
2024/03/11 04:36:33;;;;;;;;;;;;;;;8.65;65.35;96520.84;5075611;28;19932;-77
2024/03/11 04:39:04;;;;;;;;;;;;;;;8.60;65.72;96532.66;5089972;28;19947;-78
2024/03/11 04:41:35;;;;;;;;;;;;;;;8.61;65.22;96522.63;5108071;28;19930;-78
2024/03/11 04:44:03;;;;;;;;;;;;;;;8.49;65.57;96536.91;5079122;28;20291;-78
2024/03/11 04:46:31;;;;;;;;;;;;;;;8.51;65.81;96539.28;5084772;28;19931;-78
2024/03/11 04:48:59;;;;;;;;;;;;;;;8.49;65.50;96549.66;5078569;28;19963;-79
2024/03/11 04:51:28;;;;;;;;;;;;;;;8.37;65.93;96553.88;5078914;28;20336;-77
2024/03/11 04:53:56;;;;;;;;;;;;;;;8.35;65.91;96558.78;5074963;28;20391;-78
2024/03/11 04:56:24;;;;;;;;;;;;;;;8.40;65.69;96568.66;5067693;28;19928;-78
2024/03/11 04:58:55;;;;;;;;;;;;;;;8.31;65.96;96571.41;5075389;28;19934;-77
2024/03/11 05:01:23;;;;;;;;;;;;;;;8.31;65.98;96570.59;5074422;28;19932;-78
2024/03/11 05:03:50;;;;;;;;;;;;;;;8.38;65.76;96570.91;5070531;28;19935;-78
2024/03/11 05:06:18;;;;;;;;;;;;;;;8.38;65.88;96576.31;5068543;28;20383;-81
2024/03/11 05:08:47;;;;;;;;;;;;;;;8.37;65.97;96570.13;5073917;28;20433;-80
2024/03/11 05:11:14;;;;;;;;;;;;;;;8.32;65.79;96569.47;5071704;28;19947;-78
2024/03/11 05:13:49;;;;;;;;;;;;;;;8.43;65.22;96573.41;5104991;28;19924;-81
2024/03/11 05:16:19;;;;;;;;;;;;;;;8.43;65.48;96578.03;5074465;28;20011;-81
2024/03/11 05:18:47;;;;;;;;;;;;;;;8.47;65.19;96581.66;5076524;28;19966;-80
2024/03/11 05:21:15;;;;;;;;;;;;;;;8.58;64.82;96585.56;5076758;28;19924;-80
2024/03/11 05:23:43;;;;;;;;;;;;;;;8.58;64.54;96582.88;5090071;28;19925;-79
2024/03/11 05:26:10;;;;;;;;;;;;;;;8.66;64.37;96579.28;5088226;28;19961;-80
2024/03/11 05:28:38;;;;;;;;;;;;;;;8.65;64.09;96577.69;5080871;28;19924;-81
2024/03/11 05:31:09;;;;;;;;;;;;;;;8.59;64.39;96576.31;5065386;28;19924;-81
2024/03/11 05:33:38;;;;;;;;;;;;;;;8.64;64.02;96565.28;5076554;28;19970;-79
2024/03/11 05:36:06;;;;;;;;;;;;;;;8.56;64.21;96577.75;5071682;28;20327;-75
2024/03/11 05:38:34;;;;;;;;;;;;;;;8.62;63.83;96575.63;5086630;28;19924;-77
2024/03/11 05:41:02;;;;;;;;;;;;;;;8.70;63.93;96585.63;5084903;28;20044;-75
2024/03/11 05:43:30;;;;;;;;;;;;;;;8.62;63.74;96581.84;5060080;28;19925;-75
2024/03/11 05:45:58;;;;;;;;;;;;;;;8.64;63.69;96584.25;5065468;28;19947;-78
2024/03/11 05:48:26;;;;;;;;;;;;;;;8.68;63.51;96589.78;5072387;28;20005;-88
2024/03/11 05:51:01;;;;;;;;;;;;;;;8.76;63.38;96595.13;5083674;28;19947;-76
2024/03/11 05:53:29;;;;;;;;;;;;;;;8.71;63.25;96599.94;5070637;28;19925;-80
2024/03/11 05:55:57;;;;;;;;;;;;;;;8.79;63.37;96609.91;5076402;28;19931;-78
2024/03/11 05:58:26;;;;;;;;;;;;;;;8.66;63.20;96614.47;5074864;28;19924;-78
2024/03/11 06:00:54;;;;;;;;;;;;;;;8.55;63.71;96619.50;5079811;28;19970;-77
2024/03/11 06:03:22;;;;;;;;;;;;;;;8.44;63.99;96634.53;5083798;28;19977;-77
2024/03/11 06:05:49;;;;;;;;;;;;;;;8.46;64.02;96645.03;5073619;28;19939;-78
2024/03/11 06:08:22;;;;;;;;;;;;;;;8.52;63.99;96641.00;5095416;28;19928;-75
2024/03/11 06:10:49;;;;;;;;;;;;;;;8.42;64.24;96653.03;5077790;28;19924;-75
2024/03/11 06:13:17;;;;;;;;;;;;;;;8.45;63.85;96659.69;5089272;28;19932;-78
2024/03/11 06:15:45;;;;;;;;;;;;;;;8.38;64.09;96663.69;5079546;28;19924;-89
2024/03/11 06:18:13;;;;;;;;;;;;;;;8.44;64.04;96666.22;5073632;28;19924;-86
2024/03/11 06:20:42;;;;;;;;;;;;;;;8.26;64.41;96668.22;5077131;28;19925;-82
2024/03/11 06:23:10;;;;;;;;;;;;;;;8.40;63.94;96661.44;5060155;28;19929;-87
2024/03/11 06:25:40;;;;;;;;;;;;;;;8.39;63.90;96670.69;5065100;28;19932;-84
2024/03/11 06:28:08;;;;;;;;;;;;;;;8.43;63.96;96678.16;5080090;28;19924;-89
2024/03/11 06:30:39;;;;;;;;;;;;;;;8.31;64.00;96676.94;5086226;28;20047;-83
2024/03/11 06:33:09;;;;;;;;;;;;;;;8.65;63.07;96694.13;5074977;28;19955;-83
2024/03/11 06:35:37;;;;;;;;;;;;;;;8.63;62.94;96702.56;5096846;28;19931;-85
2024/03/11 06:38:07;;;;;;;;;;;;;;;8.86;62.40;96700.34;5072464;28;19924;-85
2024/03/11 06:40:34;;;;;;;;;;;;;;;8.57;63.32;96703.06;5075615;28;19924;-84
2024/03/11 06:43:03;;;;;;;;;;;;;;;8.50;63.32;96705.50;5093189;28;19970;-84
2024/03/11 06:45:31;;;;;;;;;;;;;;;8.42;63.69;96704.44;5097845;28;19925;-85
2024/03/11 06:47:59;;;;;;;;;;;;;;;8.54;63.50;96703.75;5076520;28;19967;-82
2024/03/11 06:50:28;;;;;;;;;;;;;;;8.50;63.55;96717.13;5074809;28;20021;-82
2024/03/11 06:52:56;;;;;;;;;;;;;;;8.69;62.68;96718.63;5074912;28;19971;-82
2024/03/11 06:55:24;;;;;;;;;;;;;;;8.54;63.30;96725.41;5093516;28;19934;-84
2024/03/11 06:57:51;;;;;;;;;;;;;;;8.70;63.31;96731.03;5090864;28;19931;-84
2024/03/11 07:00:21;;;;;;;;;;;;;;;8.78;62.92;96724.78;5076877;28;20376;-85
2024/03/11 07:02:49;;;;;;;;;;;;;;;8.75;63.05;96731.66;5076452;28;19977;-85
2024/03/11 07:05:17;;;;;;;;;;;;;;;8.59;63.06;96733.34;5093805;28;20375;-84
2024/03/11 07:07:46;;;;;;;;;;;;;;;8.72;62.73;96724.16;5083904;28;19935;-84
2024/03/11 07:10:15;;;;;;;;;;;;;;;8.80;62.82;96726.03;5094312;28;19931;-84
2024/03/11 07:12:44;;;;;;;;;;;;;;;8.80;62.50;96733.38;5084396;28;19997;-83
2024/03/11 07:15:11;;;;;;;;;;;;;;;8.94;62.43;96731.19;5094133;28;20213;-84
2024/03/11 07:17:41;;;;;;;;;;;;;;;9.01;61.81;96739.59;5077463;28;19924;-83
2024/03/11 07:20:12;;;;;;;;;;;;;;;9.10;61.31;96745.72;5079067;28;19924;-84
2024/03/11 07:22:42;;;;;;;;;;;;;;;9.00;61.74;96740.75;5078224;28;19947;-84
2024/03/11 07:25:10;;;;;;;;;;;;;;;8.91;62.26;96754.31;5063028;28;19993;-84
2024/03/11 07:27:39;;;;;;;;;;;;;;;9.01;61.72;96761.28;5075819;28;19982;-84
2024/03/11 07:30:08;;;;;;;;;;;;;;;9.14;61.02;96754.81;5091768;28;19946;-84
2024/03/11 07:32:36;;;;;;;;;;;;;;;9.26;60.86;96754.06;5101650;28;20382;-84
2024/03/11 07:35:06;;;;;;;;;;;;;;;9.19;61.05;96762.72;5098122;28;20014;-77
2024/03/11 07:37:36;;;;;;;;;;;;;;;9.15;61.07;96761.78;5086106;28;19928;-77
2024/03/11 07:40:11;;;;;;;;;;;;;;;9.25;61.06;96765.25;5077786;28;19931;-78
2024/03/11 07:42:39;;;;;;;;;;;;;;;9.22;61.45;96761.28;5065896;28;20071;-78
2024/03/11 07:45:10;;;;;;;;;;;;;;;9.34;60.71;96766.78;5076279;28;19929;-79
2024/03/11 07:47:39;;;;;;;;;;;;;;;9.37;60.65;96766.09;5083172;28;19997;-79
2024/03/11 07:50:10;;;;;;;;;;;;;;;9.36;60.58;96775.34;5080060;28;20380;-78
2024/03/11 07:52:38;;;;;;;;;;;;;;;9.47;60.44;96774.97;5074783;28;19924;-78
2024/03/11 07:55:07;;;;;;;;;;;;;;;9.42;60.16;96771.31;5096528;28;19931;-77
2024/03/11 07:57:36;;;;;;;;;;;;;;;9.45;60.34;96776.09;5099373;28;20631;-77
2024/03/11 08:00:05;;;;;;;;;;;;;;;9.50;60.30;96772.38;5067588;28;19934;-79
2024/03/11 08:02:36;;;;;;;;;;;;;;;9.53;59.98;96776.34;5072383;28;19931;-77
2024/03/11 08:05:04;;;;;;;;;;;;;;;9.57;59.96;96772.63;5084761;28;19990;-78
2024/03/11 08:07:33;;;;;;;;;;;;;;;9.59;59.98;96770.41;5065343;28;19924;-77
2024/03/11 08:10:01;;;;;;;;;;;;;;;9.66;59.57;96776.06;5109933;28;19943;-78
2024/03/11 08:12:29;;;;;;;;;;;;;;;9.63;59.50;96775.94;5077562;28;19931;-77
2024/03/11 08:14:59;;;;;;;;;;;;;;;9.68;59.66;96784.66;5074895;28;20003;-78
2024/03/11 08:17:27;;;;;;;;;;;;;;;9.73;59.37;96780.16;5080080;28;19950;-77
2024/03/11 08:19:57;;;;;;;;;;;;;;;9.71;59.19;96792.16;5067047;28;19943;-78
2024/03/11 08:22:25;;;;;;;;;;;;;;;9.83;58.99;96782.47;5074343;28;19924;-78
2024/03/11 08:24:54;;;;;;;;;;;;;;;9.84;59.01;96790.25;5092761;28;19924;-78
2024/03/11 08:27:22;;;;;;;;;;;;;;;9.87;59.13;96781.47;5093091;28;19924;-78
2024/03/11 08:29:50;;;;;;;;;;;;;;;9.93;58.86;96784.75;5074917;28;20018;-78
2024/03/11 08:32:18;;;;;;;;;;;;;;;9.94;59.10;96789.84;5074402;28;19924;-78
2024/03/11 08:34:45;;;;;;;;;;;;;;;10.07;58.42;96789.91;5061694;28;20015;-78
2024/03/11 08:37:14;;;;;;;;;;;;;;;10.20;58.45;96797.72;5073883;28;19924;-78
2024/03/11 08:39:41;;;;;;;;;;;;;;;10.34;57.94;96796.66;5074874;28;19924;-77
2024/03/11 08:42:11;;;;;;;;;;;;;;;10.51;57.45;96796.47;5074198;28;19932;-77
2024/03/11 08:44:38;;;;;;;;;;;;;;;10.73;56.64;96800.66;5093034;28;20366;-84
2024/03/11 08:47:07;;;;;;;;;;;;;;;10.72;56.40;96809.94;5094963;28;20280;-82
2024/03/11 08:49:37;;;;;;;;;;;;;;;10.78;56.38;96814.03;5057650;28;19924;-83
2024/03/11 08:52:06;;;;;;;;;;;;;;;10.84;55.41;96814.59;5071393;28;19934;-83
2024/03/11 08:54:35;;;;;;;;;;;;;;;11.02;55.83;96819.47;5074908;28;20507;-83
2024/03/11 08:57:02;;;;;;;;;;;;;;;11.09;55.72;96828.97;5061289;28;20335;-84
2024/03/11 08:59:32;;;;;;;;;;;;;;;11.06;54.73;96827.72;5105624;28;19924;-83
2024/03/11 09:02:01;;;;;;;;;;;;;;;11.05;54.71;96833.50;5089353;28;19930;-83
2024/03/11 09:04:29;;;;;;;;;;;;;;;11.24;54.67;96828.28;5071904;28;19958;-83
2024/03/11 09:06:58;;;;;;;;;;;;;;;11.39;53.77;96827.56;5070436;28;20447;-83
2024/03/11 09:09:27;;;;;;;;;;;;;;;11.24;54.05;96831.00;5078786;28;19924;-83
2024/03/11 09:11:57;;;;;;;;;;;;;;;11.16;53.83;96840.84;5081321;28;19927;-83
2024/03/11 09:14:26;;;;;;;;;;;;;;;11.23;54.38;96841.06;5064686;28;20379;-83
2024/03/11 09:16:56;;;;;;;;;;;;;;;11.33;53.74;96842.53;5069336;28;19978;-83
2024/03/11 09:19:23;;;;;;;;;;;;;;;11.40;52.58;96842.78;5078666;28;20326;-83
2024/03/11 09:21:52;;;;;;;;;;;;;;;11.53;52.75;96847.03;5076813;28;19930;-82
2024/03/11 09:24:20;;;;;;;;;;;;;;;11.46;52.71;96855.00;5059878;28;19936;-83
2024/03/11 09:26:49;;;;;;;;;;;;;;;11.45;52.42;96842.53;5077902;28;19928;-82
2024/03/11 09:29:17;;;;;;;;;;;;;;;11.54;52.34;96845.91;5074365;28;19924;-82
2024/03/11 09:31:45;;;;;;;;;;;;;;;11.72;52.42;96853.81;5092054;28;19935;-82
2024/03/11 09:34:14;;;;;;;;;;;;;;;11.85;51.61;96858.09;5078164;28;20007;-82
2024/03/11 09:36:44;;;;;;;;;;;;;;;11.81;50.90;96854.44;5074406;28;20188;-81
2024/03/11 09:39:12;;;;;;;;;;;;;;;11.88;51.22;96854.69;5092414;28;19925;-82
2024/03/11 09:41:42;;;;;;;;;;;;;;;11.92;51.47;96855.56;5096755;28;19924;-82
2024/03/11 09:44:13;;;;;;;;;;;;;;;11.91;50.82;96859.44;5098885;28;19924;-82
2024/03/11 09:46:45;;;;;;;;;;;;;;;12.09;51.07;96856.41;5080668;28;19924;-82
2024/03/11 09:49:14;;;;;;;;;;;;;;;12.13;50.28;96866.28;5074888;28;19974;-83
2024/03/11 09:51:46;;;;;;;;;;;;;;;12.18;49.67;96863.31;5060404;28;20229;-82
2024/03/11 09:54:14;;;;;;;;;;;;;;;12.03;50.82;96861.31;5076079;28;19931;-82
2024/03/11 09:56:41;;;;;;;;;;;;;;;12.15;49.83;96844.16;5089930;28;19931;-81
2024/03/11 09:59:10;;;;;;;;;;;;;;;12.14;49.42;96856.16;5059333;28;19978;-82
2024/03/11 10:01:42;;;;;;;;;;;;;;;12.11;50.12;96854.16;5051998;28;20414;-82
2024/03/11 10:04:12;;;;;;;;;;;;;;;12.23;50.13;96848.66;5047447;28;19924;-82
2024/03/11 10:06:40;;;;;;;;;;;;;;;12.18;50.00;96846.97;5062497;28;19958;-81
2024/03/11 10:09:18;;;;;;;;;;;;;;;12.17;50.06;96841.88;5081299;28;19931;-81
2024/03/11 10:12:00;;;;;;;;;;;;;;;12.19;49.68;96851.28;5063386;28;19928;-81
2024/03/11 10:14:28;;;;;;;;;;;;;;;12.38;49.66;96852.56;5063383;28;19925;-81
2024/03/11 10:16:56;;;;;;;;;;;;;;;12.26;49.15;96850.69;5065649;28;19927;-82
2024/03/11 10:19:26;;;;;;;;;;;;;;;12.35;49.48;96842.34;5061380;28;20475;-82
2024/03/11 10:21:54;;;;;;;;;;;;;;;12.35;49.22;96834.19;5045877;28;20335;-81
2024/03/11 10:24:23;;;;;;;;;;;;;;;12.27;48.95;96833.22;5063606;28;19956;-81
2024/03/11 10:26:54;;;;;;;;;;;;;;;12.36;49.13;96842.03;5062875;28;19924;-81
2024/03/11 10:29:31;;;;;;;;;;;;;;;12.39;48.38;96829.63;5053120;28;19932;-81
2024/03/11 10:32:00;;;;;;;;;;;;;;;12.36;48.37;96833.84;5040488;28;19924;-81
2024/03/11 10:34:29;;;;;;;;;;;;;;;12.21;48.77;96834.59;5061837;28;19924;-81
2024/03/11 10:36:59;;;;;;;;;;;;;;;12.07;49.09;96830.34;5076511;28;19978;-82
2024/03/11 10:39:40;;;;;;;;;;;;;;;12.25;48.11;96825.41;5063455;28;19924;-82
2024/03/11 10:42:15;;;;;;;;;;;;;;;12.29;47.98;96837.16;5057220;28;20485;-82
2024/03/11 10:44:45;;;;;;;;;;;;;;;12.57;47.78;96836.34;5065716;28;19924;-82
2024/03/11 10:47:15;;;;;;;;;;;;;;;12.73;46.69;96825.41;5081343;28;19931;-83
2024/03/11 10:49:45;;;;;;;;;;;;;;;12.48;46.40;96833.78;5072341;28;20014;-82
2024/03/11 10:52:14;;;;;;;;;;;;;;;12.38;45.95;96834.28;5056631;28;20376;-82
2024/03/11 10:54:44;;;;;;;;;;;;;;;12.36;46.10;96824.88;5087805;28;19932;-82
2024/03/11 10:57:26;;;;;;;;;;;;;;;12.24;46.73;96831.97;5067599;28;19928;-82
2024/03/11 10:59:54;;;;;;;;;;;;;;;12.26;46.50;96826.19;5089074;28;19924;-82
2024/03/11 11:02:23;;;;;;;;;;;;;;;12.21;46.79;96827.22;5093498;28;19924;-82
2024/03/11 11:04:54;;;;;;;;;;;;;;;12.35;46.95;96829.53;5092049;28;19931;-76
2024/03/11 11:07:30;;;;;;;;;;;;;;;12.34;46.77;96830.66;5092286;28;19977;-76
2024/03/11 11:10:01;;;;;;;;;;;;;;;12.17;47.25;96830.97;5076826;28;19924;-77
2024/03/11 11:12:29;;;;;;;;;;;;;;;12.36;47.23;96824.88;5076409;28;19924;-77
2024/03/11 11:14:58;;;;;;;;;;;;;;;12.42;47.20;96835.19;5094641;28;19924;-77
2024/03/11 11:17:28;;;;;;;;;;;;;;;12.41;46.83;96828.16;5075837;28;19936;-77
2024/03/11 11:19:56;;;;;;;;;;;;;;;12.37;47.18;96827.25;5075899;28;19928;-76
2024/03/11 11:22:25;;;;;;;;;;;;;;;12.45;47.21;96829.00;5073904;28;19947;-76
2024/03/11 11:24:54;;;;;;;;;;;;;;;12.57;46.52;96831.69;5094069;28;19932;-76
2024/03/11 11:27:27;;;;;;;;;;;;;;;12.64;45.96;96830.28;5075627;28;19924;-76
2024/03/11 11:30:09;;;;;;;;;;;;;;;12.72;45.91;96834.75;5075885;28;20443;-76
2024/03/11 11:32:37;;;;;;;;;;;;;;;12.86;45.92;96824.22;5072115;28;20558;-76
2024/03/11 11:35:06;;;;;;;;;;;;;;;13.05;45.47;96829.75;5094314;28;20493;-77
2024/03/11 11:37:39;;;;;;;;;;;;;;;13.24;45.31;96831.75;5088858;28;19924;-76
2024/03/11 11:40:26;;;;;;;;;;;;;;;13.26;44.91;96834.13;5088439;28;19924;-76
2024/03/11 11:42:55;;;;;;;;;;;;;;;13.26;44.58;96837.66;5063484;28;20367;-76
2024/03/11 11:45:42;;;;;;;;;;;;;;;13.32;44.55;96841.69;5065096;28;19967;-77
2024/03/11 11:48:14;;;;;;;;;;;;;;;13.38;43.90;96835.97;5063976;28;19924;-76
2024/03/11 11:50:45;;;;;;;;;;;;;;;13.63;44.04;96840.00;5075912;28;19977;-76
2024/03/11 11:53:14;;;;;;;;;;;;;;;13.76;43.89;96837.97;5080292;28;19958;-76
2024/03/11 11:55:49;;;;;;;;;;;;;;;13.83;43.54;96844.34;5074964;28;20453;-76
2024/03/11 11:58:18;;;;;;;;;;;;;;;13.95;43.47;96842.63;5074232;28;19967;-77
2024/03/11 12:00:53;;;;;;;;;;;;;;;13.88;42.90;96848.75;5075667;28;19928;-77
2024/03/11 12:03:27;;;;;;;;;;;;;;;13.89;43.30;96845.66;5093739;28;19946;-77
2024/03/11 12:06:03;;;;;;;;;;;;;;;13.89;42.09;96850.31;5087250;28;19947;-77
2024/03/11 12:08:34;;;;;;;;;;;;;;;13.95;42.00;96851.59;5080432;28;20042;-77
2024/03/11 12:11:07;;;;;;;;;;;;;;;14.04;42.31;96852.19;5096754;28;19928;-77
2024/03/11 12:13:36;;;;;;;;;;;;;;;14.18;40.97;96846.25;5074522;28;19963;-77
2024/03/11 12:16:08;;;;;;;;;;;;;;;14.28;40.32;96850.34;5094986;28;19924;-76
2024/03/11 12:18:39;;;;;;;;;;;;;;;14.50;41.49;96849.59;5084127;28;19932;-76
2024/03/11 12:21:11;;;;;;;;;;;;;;;14.64;40.35;96841.66;5074742;28;19924;-77
2024/03/11 12:23:41;;;;;;;;;;;;;;;14.79;41.03;96850.09;5084920;28;19947;-77
2024/03/11 12:26:09;;;;;;;;;;;;;;;14.75;39.99;96846.50;5090807;28;19928;-79
2024/03/11 12:28:43;;;;;;;;;;;;;;;14.73;40.69;96841.41;5088634;28;19928;-79
2024/03/11 12:31:15;;;;;;;;;;;;;;;14.72;40.72;96841.78;5080187;28;20570;-79
2024/03/11 12:33:44;;;;;;;;;;;;;;;14.82;40.94;96841.19;5085234;28;19928;-77
2024/03/11 12:36:14;;;;;;;;;;;;;;;14.65;40.83;96856.13;5072626;28;19925;-76
2024/03/11 12:38:43;;;;;;;;;;;;;;;14.59;41.10;96852.09;5075003;28;19924;-77
2024/03/11 12:41:10;;;;;;;;;;;;;;;14.51;41.14;96842.97;5066078;28;20023;-77
2024/03/11 12:43:41;;;;;;;;;;;;;;;14.42;40.91;96858.78;5063631;28;19924;-77
2024/03/11 12:46:11;;;;;;;;;;;;;;;14.26;41.02;96850.66;5090672;28;19924;-77
2024/03/11 12:48:38;;;;;;;;;;;;;;;14.31;40.83;96858.56;5081841;28;19925;-77
2024/03/11 12:51:07;;;;;;;;;;;;;;;14.20;41.38;96857.59;5079644;28;19924;-77
2024/03/11 12:53:37;;;;;;;;;;;;;;;14.20;41.26;96851.34;5073710;28;19978;-76
2024/03/11 12:56:07;;;;;;;;;;;;;;;14.20;40.47;96848.59;5089102;28;19990;-77
2024/03/11 12:58:36;;;;;;;;;;;;;;;14.00;38.96;96854.06;5092196;28;19924;-77
2024/03/11 13:01:09;;;;;;;;;;;;;;;13.92;38.83;96857.81;5084970;28;20007;-77
2024/03/11 13:03:39;;;;;;;;;;;;;;;13.88;38.27;96855.00;5070438;28;19981;-76
2024/03/11 13:06:09;;;;;;;;;;;;;;;13.87;38.66;96858.09;5072351;28;19928;-76